Marysville, KS (66508)

3:08 AM CST on February 13, 2016 (GMT -0600)
N0NB | | Change Station
CLOSE
Current Station
Personal Weather Station
Location: Bremen, KS
Elevation: 1318 ft
Nearby Weather Stations

Elev 1318 ft 39.91 °N, 96.77 °W | Updated 4 seconds ago

Overcast
Overcast
18.8 °F
Feels Like 13 °F
N
4.0
Wind Variable Wind from ENE
Gusts 6.0 mph

Today
High -- | Low -- °F
--% Chance of Precip.
Yesterday
High -- | Low -- °F
Precip. -- in
Pressure 30.58 in
Visibility 10.0 miles
Clouds Mostly Cloudy 8000 ft
Overcast 11000 ft
Windchill 13 °F
Dew Point 9 °F
Humidity 66%
Rainfall 0.00 in
Snow Depth Not available.
7:22 AM 5:59 PM
Waxing Crescent, 28% visible
METAR KBIE 130855Z AUTO 08005KT 10SM BKN080 OVC110 M08/M14 A3058 RMK AO2 T10851140
Pressure 30.58 in
Visibility 10.0 miles
Clouds Mostly Cloudy 8000 ft
Overcast 11000 ft
Windchill 13 °F
Dew Point 9 °F
Humidity 66%
Rainfall 0.00 in
Snow Depth Not available.
7:22 AM 5:59 PM
Waxing Crescent, 28% visible
METAR KBIE 130855Z AUTO 08005KT 10SM BKN080 OVC110 M08/M14 A3058 RMK AO2 T10851140

10-Day Weather Forecast

Almanac

Astronomy

Feb. 13, 2016 Rise Set
Actual Time
Civil Twilight
Nautical Twilight
Astronomical Twilight
Moon
Length of Visible Light
Length of Day
Tomorrow will be .
, % of the Moon is Illuminated

Today's Extremes

State Highs State Lows

Community

WunderPhotos

Upload Photos

1,892,536 photos uploaded!

WunderBlog® & News

Nearby

Air Quality

  Air Quality AQ Index Pollutant
Not available.

Snow Depth

Station Depth Elevation

Earthquake Activity

City Distance Mag. Time & Date
Minimum magnitude displayed is 2.5.

Coastal Water Temperatures

Place Temperature

Stations

Nearby Weather Stations

Station Location Temp. Windchill Dew Point Humidity Wind Precip. Elev Updated Type
                   

Watches & Warnings

There are currently no watches in effect.